sensor_id;sensor_type;location;lat;lon;timestamp;pressure;altitude;pressure_sealevel;temperature;humidity
77153;BME280;66124;51.146;17.072;2023-02-15T00:01:21;101887.21;;;1.15;75.57
77153;BME280;66124;51.146;17.072;2023-02-15T00:03:50;101887.66;;;1.13;75.54
77153;BME280;66124;51.146;17.072;2023-02-15T00:06:19;101885.45;;;1.09;75.55
77153;BME280;66124;51.146;17.072;2023-02-15T00:08:49;101888.33;;;1.07;75.91
77153;BME280;66124;51.146;17.072;2023-02-15T00:11:19;101887.09;;;1.04;75.77
77153;BME280;66124;51.146;17.072;2023-02-15T00:13:49;101888.96;;;1.01;76.00
77153;BME280;66124;51.146;17.072;2023-02-15T00:16:18;101888.94;;;0.99;76.07
77153;BME280;66124;51.146;17.072;2023-02-15T00:18:47;101883.34;;;0.96;75.87
77153;BME280;66124;51.146;17.072;2023-02-15T00:21:17;101882.43;;;0.94;75.92
77153;BME280;66124;51.146;17.072;2023-02-15T00:23:46;101878.76;;;0.91;76.06
77153;BME280;66124;51.146;17.072;2023-02-15T00:26:15;101879.95;;;0.88;75.98
77153;BME280;66124;51.146;17.072;2023-02-15T00:28:45;101874.13;;;0.83;76.06
77153;BME280;66124;51.146;17.072;2023-02-15T00:31:14;101877.14;;;0.79;76.26
77153;BME280;66124;51.146;17.072;2023-02-15T00:33:43;101877.98;;;0.75;76.13
77153;BME280;66124;51.146;17.072;2023-02-15T00:36:13;101875.76;;;0.72;76.22
77153;BME280;66124;51.146;17.072;2023-02-15T00:38:43;101869.40;;;0.67;76.39
77153;BME280;66124;51.146;17.072;2023-02-15T00:41:12;101865.70;;;0.61;76.24
77153;BME280;66124;51.146;17.072;2023-02-15T00:43:42;101865.98;;;0.56;76.44
77153;BME280;66124;51.146;17.072;2023-02-15T00:46:14;101865.38;;;0.51;76.57
77153;BME280;66124;51.146;17.072;2023-02-15T00:48:42;101864.89;;;0.47;76.66
77153;BME280;66124;51.146;17.072;2023-02-15T00:56:19;101865.42;;;0.39;77.24
77153;BME280;66124;51.146;17.072;2023-02-15T00:58:48;101864.91;;;0.35;77.26
77153;BME280;66124;51.146;17.072;2023-02-15T01:01:20;101867.77;;;0.34;77.32
77153;BME280;66124;51.146;17.072;2023-02-15T01:03:50;101870.04;;;0.33;77.44
77153;BME280;66124;51.146;17.072;2023-02-15T01:06:20;101871.64;;;0.32;77.65
77153;BME280;66124;51.146;17.072;2023-02-15T01:08:49;101871.19;;;0.31;77.73
77153;BME280;66124;51.146;17.072;2023-02-15T01:11:21;101871.22;;;0.30;77.85
77153;BME280;66124;51.146;17.072;2023-02-15T01:13:52;101869.02;;;0.30;77.76
77153;BME280;66124;51.146;17.072;2023-02-15T01:16:23;101870.04;;;0.30;77.94
77153;BME280;66124;51.146;17.072;2023-02-15T01:18:52;101865.80;;;0.28;77.87
77153;BME280;66124;51.146;17.072;2023-02-15T01:21:24;101859.60;;;0.28;78.08
77153;BME280;66124;51.146;17.072;2023-02-15T01:23:54;101854.11;;;0.27;78.32
77153;BME280;66124;51.146;17.072;2023-02-15T01:26:23;101851.40;;;0.26;78.12
77153;BME280;66124;51.146;17.072;2023-02-15T01:28:53;101849.06;;;0.24;78.15
77153;BME280;66124;51.146;17.072;2023-02-15T01:31:22;101849.30;;;0.22;78.32
77153;BME280;66124;51.146;17.072;2023-02-15T01:33:52;101838.67;;;0.20;78.28
77153;BME280;66124;51.146;17.072;2023-02-15T01:36:21;101833.34;;;0.20;78.28
77153;BME280;66124;51.146;17.072;2023-02-15T01:38:50;101826.98;;;0.20;78.30
77153;BME280;66124;51.146;17.072;2023-02-15T01:41:20;101823.77;;;0.18;78.26
77153;BME280;66124;51.146;17.072;2023-02-15T01:43:51;101826.55;;;0.17;78.64
77153;BME280;66124;51.146;17.072;2023-02-15T01:46:24;101821.77;;;0.16;78.50
77153;BME280;66124;51.146;17.072;2023-02-15T01:49:00;101820.98;;;0.15;78.63
77153;BME280;66124;51.146;17.072;2023-02-15T01:51:32;101816.40;;;0.13;78.46
77153;BME280;66124;51.146;17.072;2023-02-15T01:54:08;101817.00;;;0.12;78.62
77153;BME280;66124;51.146;17.072;2023-02-15T01:56:41;101813.59;;;0.10;78.69
77153;BME280;66124;51.146;17.072;2023-02-15T01:59:13;101808.48;;;0.09;78.63
77153;BME280;66124;51.146;17.072;2023-02-15T02:01:44;101808.77;;;0.07;78.87
77153;BME280;66124;51.146;17.072;2023-02-15T02:04:17;101807.11;;;0.05;78.83
77153;BME280;66124;51.146;17.072;2023-02-15T02:06:48;101800.86;;;0.02;78.92
77153;BME280;66124;51.146;17.072;2023-02-15T02:09:17;101800.24;;;0.00;78.94
77153;BME280;66124;51.146;17.072;2023-02-15T02:17:34;101795.23;;;-0.03;79.01
77153;BME280;66124;51.146;17.072;2023-02-15T02:20:30;101790.42;;;-0.08;79.15
77153;BME280;66124;51.146;17.072;2023-02-15T02:23:31;101788.69;;;-0.11;78.89
77153;BME280;66124;51.146;17.072;2023-02-15T02:26:28;101789.39;;;-0.15;79.19
77153;BME280;66124;51.146;17.072;2023-02-15T02:29:36;101783.07;;;-0.16;79.13
77153;BME280;66124;51.146;17.072;2023-02-15T02:32:33;101781.37;;;-0.20;79.25
77153;BME280;66124;51.146;17.072;2023-02-15T02:35:11;101770.73;;;-0.22;79.22
77153;BME280;66124;51.146;17.072;2023-02-15T02:37:50;101768.40;;;-0.24;79.43
77153;BME280;66124;51.146;17.072;2023-02-15T02:40:28;101764.03;;;-0.27;79.56
77153;BME280;66124;51.146;17.072;2023-02-15T02:43:05;101758.11;;;-0.29;79.78
77153;BME280;66124;51.146;17.072;2023-02-15T02:45:39;101755.27;;;-0.31;79.77
77153;BME280;66124;51.146;17.072;2023-02-15T02:48:13;101749.79;;;-0.32;80.04
77153;BME280;66124;51.146;17.072;2023-02-15T02:50:44;101748.06;;;-0.32;80.09
77153;BME280;66124;51.146;17.072;2023-02-15T02:53:13;101747.23;;;-0.33;80.14
77153;BME280;66124;51.146;17.072;2023-02-15T02:55:47;101744.80;;;-0.32;80.16
77153;BME280;66124;51.146;17.072;2023-02-15T02:58:21;101742.88;;;-0.32;80.29
77153;BME280;66124;51.146;17.072;2023-02-15T03:00:56;101744.08;;;-0.32;80.34
77153;BME280;66124;51.146;17.072;2023-02-15T03:03:30;101746.36;;;-0.32;80.33
77153;BME280;66124;51.146;17.072;2023-02-15T03:06:04;101745.84;;;-0.33;80.40
77153;BME280;66124;51.146;17.072;2023-02-15T03:08:40;101747.19;;;-0.32;80.27
77153;BME280;66124;51.146;17.072;2023-02-15T03:11:12;101740.30;;;-0.32;80.58
77153;BME280;66124;51.146;17.072;2023-02-15T03:13:42;101740.68;;;-0.33;80.49
77153;BME280;66124;51.146;17.072;2023-02-15T03:16:14;101740.89;;;-0.34;80.37
77153;BME280;66124;51.146;17.072;2023-02-15T03:18:48;101740.05;;;-0.34;80.35
77153;BME280;66124;51.146;17.072;2023-02-15T03:21:18;101738.71;;;-0.35;80.68
77153;BME280;66124;51.146;17.072;2023-02-15T03:23:51;101713.67;;;-0.49;80.63
77153;BME280;66124;51.146;17.072;2023-02-15T03:26:22;101739.48;;;-0.37;80.72
77153;BME280;66124;51.146;17.072;2023-02-15T03:28:52;101739.30;;;-0.37;80.48
77153;BME280;66124;51.146;17.072;2023-02-15T03:34:09;101735.42;;;-0.32;80.75
77153;BME280;66124;51.146;17.072;2023-02-15T03:36:43;101737.02;;;-0.32;80.62
77153;BME280;66124;51.146;17.072;2023-02-15T03:39:18;101732.31;;;-0.31;80.82
77153;BME280;66124;51.146;17.072;2023-02-15T03:41:56;101730.90;;;-0.31;80.78
77153;BME280;66124;51.146;17.072;2023-02-15T03:44:29;101728.81;;;-0.31;80.61
77153;BME280;66124;51.146;17.072;2023-02-15T03:47:02;101728.17;;;-0.32;80.70
77153;BME280;66124;51.146;17.072;2023-02-15T03:49:38;101725.95;;;-0.32;80.70
77153;BME280;66124;51.146;17.072;2023-02-15T03:52:11;101728.40;;;-0.33;80.62
77153;BME280;66124;51.146;17.072;2023-02-15T03:54:41;101728.14;;;-0.35;80.77
77153;BME280;66124;51.146;17.072;2023-02-15T03:57:15;101729.63;;;-0.37;80.82
77153;BME280;66124;51.146;17.072;2023-02-15T03:59:44;101727.98;;;-0.38;80.69
77153;BME280;66124;51.146;17.072;2023-02-15T04:02:19;101728.98;;;-0.41;80.80
77153;BME280;66124;51.146;17.072;2023-02-15T04:04:51;101731.98;;;-0.42;80.74
77153;BME280;66124;51.146;17.072;2023-02-15T04:07:20;101729.48;;;-0.44;80.84
77153;BME280;66124;51.146;17.072;2023-02-15T04:09:49;101728.77;;;-0.44;80.82
77153;BME280;66124;51.146;17.072;2023-02-15T04:12:19;101723.83;;;-0.45;80.79
77153;BME280;66124;51.146;17.072;2023-02-15T04:14:48;101723.72;;;-0.46;80.93
77153;BME280;66124;51.146;17.072;2023-02-15T04:17:17;101718.42;;;-0.48;81.09
77153;BME280;66124;51.146;17.072;2023-02-15T04:19:47;101714.67;;;-0.45;81.09
77153;BME280;66124;51.146;17.072;2023-02-15T04:22:16;101708.84;;;-0.46;81.17
77153;BME280;66124;51.146;17.072;2023-02-15T04:24:45;101706.29;;;-0.47;81.14
77153;BME280;66124;51.146;17.072;2023-02-15T04:27:15;101702.94;;;-0.49;81.21
77153;BME280;66124;51.146;17.072;2023-02-15T04:29:44;101706.27;;;-0.50;81.11
77153;BME280;66124;51.146;17.072;2023-02-15T04:32:14;101707.50;;;-0.51;81.29
77153;BME280;66124;51.146;17.072;2023-02-15T04:34:43;101706.70;;;-0.52;81.43
77153;BME280;66124;51.146;17.072;2023-02-15T04:37:12;101709.45;;;-0.51;81.36
77153;BME280;66124;51.146;17.072;2023-02-15T04:39:41;101708.16;;;-0.50;81.47
77153;BME280;66124;51.146;17.072;2023-02-15T04:42:11;101704.81;;;-0.49;81.75
77153;BME280;66124;51.146;17.072;2023-02-15T04:44:38;101704.96;;;-0.48;81.49
77153;BME280;66124;51.146;17.072;2023-02-15T04:47:06;101701.02;;;-0.49;81.33
77153;BME280;66124;51.146;17.072;2023-02-15T04:54:42;101695.72;;;-0.46;81.57
77153;BME280;66124;51.146;17.072;2023-02-15T04:57:12;101703.62;;;-0.49;81.68
77153;BME280;66124;51.146;17.072;2023-02-15T04:59:41;101707.81;;;-0.50;81.80
77153;BME280;66124;51.146;17.072;2023-02-15T05:02:11;101710.11;;;-0.51;81.64
77153;BME280;66124;51.146;17.072;2023-02-15T05:04:40;101712.02;;;-0.51;81.75
77153;BME280;66124;51.146;17.072;2023-02-15T05:07:11;101714.84;;;-0.52;81.75
77153;BME280;66124;51.146;17.072;2023-02-15T05:09:40;101714.57;;;-0.54;81.84
77153;BME280;66124;51.146;17.072;2023-02-15T05:12:10;101712.01;;;-0.54;81.79
77153;BME280;66124;51.146;17.072;2023-02-15T05:14:39;101704.78;;;-0.55;81.73
77153;BME280;66124;51.146;17.072;2023-02-15T05:17:09;101702.11;;;-0.57;81.75
77153;BME280;66124;51.146;17.072;2023-02-15T05:19:38;101699.40;;;-0.58;81.89
77153;BME280;66124;51.146;17.072;2023-02-15T05:22:08;101695.67;;;-0.60;82.01
77153;BME280;66124;51.146;17.072;2023-02-15T05:24:37;101696.96;;;-0.61;81.89
77153;BME280;66124;51.146;17.072;2023-02-15T05:27:07;101694.45;;;-0.63;81.80
77153;BME280;66124;51.146;17.072;2023-02-15T05:29:37;101692.05;;;-0.63;81.94
77153;BME280;66124;51.146;17.072;2023-02-15T05:32:06;101694.84;;;-0.64;81.87
77153;BME280;66124;51.146;17.072;2023-02-15T05:34:36;101697.06;;;-0.63;81.97
77153;BME280;66124;51.146;17.072;2023-02-15T05:37:05;101691.56;;;-0.64;81.92
77153;BME280;66124;51.146;17.072;2023-02-15T05:39:35;101686.81;;;-0.65;81.84
77153;BME280;66124;51.146;17.072;2023-02-15T05:42:04;101689.80;;;-0.66;81.90
77153;BME280;66124;51.146;17.072;2023-02-15T05:44:34;101691.27;;;-0.69;82.05
77153;BME280;66124;51.146;17.072;2023-02-15T05:47:03;101687.36;;;-0.70;81.95
77153;BME280;66124;51.146;17.072;2023-02-15T05:49:33;101686.84;;;-0.70;81.92
77153;BME280;66124;51.146;17.072;2023-02-15T05:52:02;101686.55;;;-0.71;82.05
77153;BME280;66124;51.146;17.072;2023-02-15T05:54:32;101684.17;;;-0.72;82.13
77153;BME280;66124;51.146;17.072;2023-02-15T05:57:01;101687.77;;;-0.72;81.93
77153;BME280;66124;51.146;17.072;2023-02-15T05:59:31;101684.55;;;-0.73;81.83
77153;BME280;66124;51.146;17.072;2023-02-15T06:02:00;101686.64;;;-0.73;81.83
77153;BME280;66124;51.146;17.072;2023-02-15T06:04:29;101688.04;;;-0.73;82.00
77153;BME280;66124;51.146;17.072;2023-02-15T06:06:59;101691.00;;;-0.74;82.02
77153;BME280;66124;51.146;17.072;2023-02-15T06:15:20;101689.37;;;-0.72;82.23
77153;BME280;66124;51.146;17.072;2023-02-15T06:17:49;101690.70;;;-0.75;81.99
77153;BME280;66124;51.146;17.072;2023-02-15T06:20:19;101697.25;;;-0.75;82.00
77153;BME280;66124;51.146;17.072;2023-02-15T06:22:48;101696.57;;;-0.75;82.23
77153;BME280;66124;51.146;17.072;2023-02-15T06:25:18;101700.30;;;-0.74;82.45
77153;BME280;66124;51.146;17.072;2023-02-15T06:27:49;101702.70;;;-0.73;82.22
77153;BME280;66124;51.146;17.072;2023-02-15T06:30:19;101705.75;;;-0.72;82.18
77153;BME280;66124;51.146;17.072;2023-02-15T06:32:48;101703.79;;;-0.70;82.32
77153;BME280;66124;51.146;17.072;2023-02-15T06:35:17;101703.04;;;-0.69;82.45
77153;BME280;66124;51.146;17.072;2023-02-15T06:37:47;101700.16;;;-0.67;82.37
77153;BME280;66124;51.146;17.072;2023-02-15T06:40:17;101698.29;;;-0.64;82.31
77153;BME280;66124;51.146;17.072;2023-02-15T06:42:46;101696.98;;;-0.61;82.23
77153;BME280;66124;51.146;17.072;2023-02-15T06:45:16;101693.48;;;-0.57;82.35
77153;BME280;66124;51.146;17.072;2023-02-15T06:47:46;101692.42;;;-0.53;82.32
77153;BME280;66124;51.146;17.072;2023-02-15T06:50:15;101696.72;;;-0.49;82.62
77153;BME280;66124;51.146;17.072;2023-02-15T06:52:44;101694.19;;;-0.43;82.63
77153;BME280;66124;51.146;17.072;2023-02-15T06:55:14;101697.69;;;-0.37;82.52
77153;BME280;66124;51.146;17.072;2023-02-15T06:57:43;101695.24;;;-0.29;82.64
77153;BME280;66124;51.146;17.072;2023-02-15T07:00:15;101693.31;;;-0.22;82.62
77153;BME280;66124;51.146;17.072;2023-02-15T07:02:44;101694.70;;;-0.12;82.95
77153;BME280;66124;51.146;17.072;2023-02-15T07:05:15;101695.94;;;-0.02;82.99
77153;BME280;66124;51.146;17.072;2023-02-15T07:07:44;101688.92;;;0.07;83.02
77153;BME280;66124;51.146;17.072;2023-02-15T07:10:14;101683.13;;;0.16;83.09
77153;BME280;66124;51.146;17.072;2023-02-15T07:12:43;101681.45;;;0.25;83.01
77153;BME280;66124;51.146;17.072;2023-02-15T07:15:14;101678.27;;;0.33;82.95
77153;BME280;66124;51.146;17.072;2023-02-15T07:17:44;101674.85;;;0.42;83.09
77153;BME280;66124;51.146;17.072;2023-02-15T07:20:17;101675.72;;;0.51;83.34
77153;BME280;66124;51.146;17.072;2023-02-15T07:22:45;101672.31;;;0.63;83.55
77153;BME280;66124;51.146;17.072;2023-02-15T07:25:15;101669.56;;;0.73;83.32
77153;BME280;66124;51.146;17.072;2023-02-15T07:27:42;101669.61;;;0.82;83.08
77153;BME280;66124;51.146;17.072;2023-02-15T07:35:19;101665.70;;;1.06;82.49
77153;BME280;66124;51.146;17.072;2023-02-15T07:37:48;101667.79;;;1.12;82.02
77153;BME280;66124;51.146;17.072;2023-02-15T07:40:18;101666.53;;;1.19;82.23
77153;BME280;66124;51.146;17.072;2023-02-15T07:42:48;101668.33;;;1.27;82.13
77153;BME280;66124;51.146;17.072;2023-02-15T07:45:17;101664.11;;;1.34;81.90
77153;BME280;66124;51.146;17.072;2023-02-15T07:47:47;101656.95;;;1.42;81.69
77153;BME280;66124;51.146;17.072;2023-02-15T07:50:17;101652.45;;;1.47;81.44
77153;BME280;66124;51.146;17.072;2023-02-15T07:52:47;101650.42;;;1.53;81.08
77153;BME280;66124;51.146;17.072;2023-02-15T07:55:16;101644.42;;;1.57;81.27
77153;BME280;66124;51.146;17.072;2023-02-15T07:57:46;101641.41;;;1.62;81.27
77153;BME280;66124;51.146;17.072;2023-02-15T08:00:18;101639.85;;;1.65;81.06
77153;BME280;66124;51.146;17.072;2023-02-15T08:02:51;101642.73;;;1.69;81.18
77153;BME280;66124;51.146;17.072;2023-02-15T08:05:21;101636.81;;;1.72;80.82
77153;BME280;66124;51.146;17.072;2023-02-15T08:07:50;101639.65;;;1.77;80.61
77153;BME280;66124;51.146;17.072;2023-02-15T08:10:19;101639.11;;;1.83;80.84
77153;BME280;66124;51.146;17.072;2023-02-15T08:12:49;101633.84;;;1.84;80.67
77153;BME280;66124;51.146;17.072;2023-02-15T08:15:18;101635.86;;;1.91;80.57
77153;BME280;66124;51.146;17.072;2023-02-15T08:17:48;101632.70;;;1.98;80.49
77153;BME280;66124;51.146;17.072;2023-02-15T08:20:18;101629.92;;;2.06;80.45
77153;BME280;66124;51.146;17.072;2023-02-15T08:22:47;101623.38;;;2.14;80.43
77153;BME280;66124;51.146;17.072;2023-02-15T08:25:17;101626.46;;;2.24;80.12
77153;BME280;66124;51.146;17.072;2023-02-15T08:27:46;101625.83;;;2.29;80.03
77153;BME280;66124;51.146;17.072;2023-02-15T08:30:16;101621.20;;;2.30;79.82
77153;BME280;66124;51.146;17.072;2023-02-15T08:32:46;101617.27;;;2.32;79.98
77153;BME280;66124;51.146;17.072;2023-02-15T08:35:15;101613.88;;;2.36;79.63
77153;BME280;66124;51.146;17.072;2023-02-15T08:37:45;101611.91;;;2.43;79.65
77153;BME280;66124;51.146;17.072;2023-02-15T08:40:14;101609.80;;;2.49;79.61
77153;BME280;66124;51.146;17.072;2023-02-15T08:42:44;101608.27;;;2.54;79.31
77153;BME280;66124;51.146;17.072;2023-02-15T08:45:12;101612.67;;;2.61;79.12
77153;BME280;66124;51.146;17.072;2023-02-15T08:47:39;101606.20;;;2.68;79.29
77153;BME280;66124;51.146;17.072;2023-02-15T08:56:34;101603.45;;;2.98;78.61
77153;BME280;66124;51.146;17.072;2023-02-15T08:59:05;101605.95;;;3.04;78.34
77153;BME280;66124;51.146;17.072;2023-02-15T09:01:35;101603.01;;;3.12;78.13
77153;BME280;66124;51.146;17.072;2023-02-15T09:04:07;101594.47;;;3.21;78.04
77153;BME280;66124;51.146;17.072;2023-02-15T09:06:37;101597.46;;;3.28;77.84
77153;BME280;66124;51.146;17.072;2023-02-15T09:09:07;101595.50;;;3.36;77.55
77153;BME280;66124;51.146;17.072;2023-02-15T09:11:38;101593.87;;;3.43;77.51
77153;BME280;66124;51.146;17.072;2023-02-15T09:14:10;101594.48;;;3.47;76.97
77153;BME280;66124;51.146;17.072;2023-02-15T09:16:41;101592.73;;;3.52;76.95
77153;BME280;66124;51.146;17.072;2023-02-15T09:19:11;101588.46;;;3.56;76.69
77153;BME280;66124;51.146;17.072;2023-02-15T09:21:40;101589.52;;;3.62;76.56
77153;BME280;66124;51.146;17.072;2023-02-15T09:24:12;101584.33;;;3.66;76.39
77153;BME280;66124;51.146;17.072;2023-02-15T09:26:44;101568.01;;;3.63;75.93
77153;BME280;66124;51.146;17.072;2023-02-15T09:29:14;101584.73;;;3.78;75.69
77153;BME280;66124;51.146;17.072;2023-02-15T09:31:46;101580.05;;;3.85;75.53
77153;BME280;66124;51.146;17.072;2023-02-15T09:34:17;101578.21;;;3.95;75.15
77153;BME280;66124;51.146;17.072;2023-02-15T09:36:47;101579.98;;;4.04;75.35
77153;BME280;66124;51.146;17.072;2023-02-15T09:39:19;101577.77;;;4.14;74.81
77153;BME280;66124;51.146;17.072;2023-02-15T09:42:12;101574.38;;;4.22;74.95
77153;BME280;66124;51.146;17.072;2023-02-15T09:45:02;101574.52;;;4.33;74.62
77153;BME280;66124;51.146;17.072;2023-02-15T09:47:48;101572.07;;;4.43;74.26
77153;BME280;66124;51.146;17.072;2023-02-15T09:50:27;101567.65;;;4.51;74.30
77153;BME280;66124;51.146;17.072;2023-02-15T09:53:18;101570.42;;;4.58;74.21
77153;BME280;66124;51.146;17.072;2023-02-15T09:55:56;101575.02;;;4.67;74.01
77153;BME280;66124;51.146;17.072;2023-02-15T09:58:37;101569.08;;;4.75;73.82
77153;BME280;66124;51.146;17.072;2023-02-15T10:01:18;101563.92;;;4.81;73.62
77153;BME280;66124;51.146;17.072;2023-02-15T10:04:03;101565.51;;;4.85;73.46
77153;BME280;66124;51.146;17.072;2023-02-15T10:06:37;101560.24;;;4.88;73.10
77153;BME280;66124;51.146;17.072;2023-02-15T10:16:39;101545.36;;;5.11;72.47
77153;BME280;66124;51.146;17.072;2023-02-15T10:19:19;101546.86;;;5.14;72.28
77153;BME280;66124;51.146;17.072;2023-02-15T10:22:02;101541.64;;;5.19;72.34
77153;BME280;66124;51.146;17.072;2023-02-15T10:24:55;101541.19;;;5.25;72.52
77153;BME280;66124;51.146;17.072;2023-02-15T10:27:32;101535.95;;;5.32;71.88
77153;BME280;66124;51.146;17.072;2023-02-15T10:30:10;101536.64;;;5.39;71.94
77153;BME280;66124;51.146;17.072;2023-02-15T10:32:47;101533.02;;;5.45;71.63
77153;BME280;66124;51.146;17.072;2023-02-15T10:35:24;101526.53;;;5.50;71.24
77153;BME280;66124;51.146;17.072;2023-02-15T10:38:14;101526.67;;;5.55;71.40
77153;BME280;66124;51.146;17.072;2023-02-15T10:41:02;101525.60;;;5.72;71.10
77153;BME280;66124;51.146;17.072;2023-02-15T10:43:47;101521.81;;;5.85;70.64
77153;BME280;66124;51.146;17.072;2023-02-15T10:46:31;101518.87;;;6.09;70.79
77153;BME280;66124;51.146;17.072;2023-02-15T10:49:19;101515.98;;;6.32;70.41
77153;BME280;66124;51.146;17.072;2023-02-15T10:52:05;101509.73;;;6.54;70.17
77153;BME280;66124;51.146;17.072;2023-02-15T10:54:44;101502.27;;;6.73;69.53
77153;BME280;66124;51.146;17.072;2023-02-15T10:57:20;101479.31;;;6.82;69.11
77153;BME280;66124;51.146;17.072;2023-02-15T11:00:02;101499.70;;;7.14;68.68
77153;BME280;66124;51.146;17.072;2023-02-15T11:02:45;101493.63;;;7.39;68.07
77153;BME280;66124;51.146;17.072;2023-02-15T11:05:29;101493.35;;;7.65;67.39
77153;BME280;66124;51.146;17.072;2023-02-15T11:08:08;101489.11;;;7.92;66.95
77153;BME280;66124;51.146;17.072;2023-02-15T11:10:41;101485.69;;;8.19;66.34
77153;BME280;66124;51.146;17.072;2023-02-15T11:13:15;101482.47;;;8.43;65.75
77153;BME280;66124;51.146;17.072;2023-02-15T11:15:49;101478.84;;;8.68;65.35
77153;BME280;66124;51.146;17.072;2023-02-15T11:18:25;101469.86;;;8.92;64.71
77153;BME280;66124;51.146;17.072;2023-02-15T11:20:59;101468.46;;;9.21;63.91
77153;BME280;66124;51.146;17.072;2023-02-15T11:23:33;101467.69;;;9.46;63.16
77153;BME280;66124;51.146;17.072;2023-02-15T11:26:09;101465.10;;;9.73;62.68
77153;BME280;66124;51.146;17.072;2023-02-15T11:28:45;101457.28;;;10.00;62.26
77153;BME280;66124;51.146;17.072;2023-02-15T11:36:51;101457.30;;;10.84;59.81
77153;BME280;66124;51.146;17.072;2023-02-15T11:39:23;101456.97;;;11.07;59.20
77153;BME280;66124;51.146;17.072;2023-02-15T11:41:55;101450.48;;;11.26;58.79
77153;BME280;66124;51.146;17.072;2023-02-15T11:44:30;101447.27;;;11.54;58.27
77153;BME280;66124;51.146;17.072;2023-02-15T11:47:01;101440.45;;;11.82;57.65
77153;BME280;66124;51.146;17.072;2023-02-15T11:49:32;101428.88;;;12.12;57.40
77153;BME280;66124;51.146;17.072;2023-02-15T11:52:04;101426.68;;;12.44;56.79
77153;BME280;66124;51.146;17.072;2023-02-15T11:54:36;101418.63;;;12.75;55.79
77153;BME280;66124;51.146;17.072;2023-02-15T11:57:14;101414.32;;;13.01;55.27
77153;BME280;66124;51.146;17.072;2023-02-15T11:59:49;101421.18;;;13.42;54.70
77153;BME280;66124;51.146;17.072;2023-02-15T12:02:23;101420.38;;;13.62;53.90
77153;BME280;66124;51.146;17.072;2023-02-15T12:04:54;101418.00;;;13.73;53.62
77153;BME280;66124;51.146;17.072;2023-02-15T12:07:27;101416.15;;;13.97;53.29
77153;BME280;66124;51.146;17.072;2023-02-15T12:10:03;101407.29;;;14.30;52.69
77153;BME280;66124;51.146;17.072;2023-02-15T12:12:34;101408.52;;;14.62;52.03
77153;BME280;66124;51.146;17.072;2023-02-15T12:15:06;101405.02;;;14.76;51.53
77153;BME280;66124;51.146;17.072;2023-02-15T12:17:39;101407.01;;;14.92;50.92
77153;BME280;66124;51.146;17.072;2023-02-15T12:20:24;101402.03;;;15.14;50.56
77153;BME280;66124;51.146;17.072;2023-02-15T12:22:59;101400.52;;;15.33;49.53
77153;BME280;66124;51.146;17.072;2023-02-15T12:25:33;101398.52;;;15.48;49.20
77153;BME280;66124;51.146;17.072;2023-02-15T12:28:15;101393.94;;;15.80;48.71
77153;BME280;66124;51.146;17.072;2023-02-15T12:30:51;101396.59;;;16.02;48.14
77153;BME280;66124;51.146;17.072;2023-02-15T12:33:28;101394.58;;;16.11;47.45
77153;BME280;66124;51.146;17.072;2023-02-15T12:36:01;101390.52;;;16.10;47.19
77153;BME280;66124;51.146;17.072;2023-02-15T12:38:33;101390.70;;;16.08;46.77
77153;BME280;66124;51.146;17.072;2023-02-15T12:41:04;101390.58;;;16.09;46.67
77153;BME280;66124;51.146;17.072;2023-02-15T12:43:35;101383.09;;;16.24;46.49
77153;BME280;66124;51.146;17.072;2023-02-15T12:46:21;101378.59;;;16.34;45.98
77153;BME280;66124;51.146;17.072;2023-02-15T12:49:04;101378.56;;;16.50;46.10
77153;BME280;66124;51.146;17.072;2023-02-15T12:56:52;101367.49;;;17.83;44.47
77153;BME280;66124;51.146;17.072;2023-02-15T12:59:21;101345.41;;;18.06;44.01
77153;BME280;66124;51.146;17.072;2023-02-15T13:01:52;101357.88;;;18.44;43.41
77153;BME280;66124;51.146;17.072;2023-02-15T13:04:25;101359.38;;;18.78;42.90
77153;BME280;66124;51.146;17.072;2023-02-15T13:06:57;101355.52;;;18.95;42.06
77153;BME280;66124;51.146;17.072;2023-02-15T13:09:39;101352.73;;;19.05;41.80
77153;BME280;66124;51.146;17.072;2023-02-15T13:12:19;101353.01;;;19.27;41.74
77153;BME280;66124;51.146;17.072;2023-02-15T13:14:51;101353.67;;;19.67;41.28
77153;BME280;66124;51.146;17.072;2023-02-15T13:17:24;101348.70;;;20.03;40.71
77153;BME280;66124;51.146;17.072;2023-02-15T13:19:54;101346.89;;;20.36;40.07
77153;BME280;66124;51.146;17.072;2023-02-15T13:22:31;101341.17;;;20.64;39.50
77153;BME280;66124;51.146;17.072;2023-02-15T13:25:04;101342.83;;;20.84;39.12
77153;BME280;66124;51.146;17.072;2023-02-15T13:27:42;101344.82;;;21.03;38.68
77153;BME280;66124;51.146;17.072;2023-02-15T13:30:26;101338.58;;;21.15;37.96
77153;BME280;66124;51.146;17.072;2023-02-15T13:32:56;101336.89;;;21.11;37.89
77153;BME280;66124;51.146;17.072;2023-02-15T13:35:33;101335.05;;;21.21;37.80
77153;BME280;66124;51.146;17.072;2023-02-15T13:38:30;101337.92;;;21.42;37.52
77153;BME280;66124;51.146;17.072;2023-02-15T13:41:11;101332.45;;;21.63;37.14
77153;BME280;66124;51.146;17.072;2023-02-15T13:43:50;101333.63;;;21.90;36.58
77153;BME280;66124;51.146;17.072;2023-02-15T13:46:34;101322.39;;;22.14;36.04
77153;BME280;66124;51.146;17.072;2023-02-15T13:49:17;101317.92;;;22.33;35.72
77153;BME280;66124;51.146;17.072;2023-02-15T13:51:55;101315.02;;;22.52;35.41
77153;BME280;66124;51.146;17.072;2023-02-15T13:54:41;101319.36;;;22.67;35.05
77153;BME280;66124;51.146;17.072;2023-02-15T13:57:24;101314.80;;;22.80;34.62
77153;BME280;66124;51.146;17.072;2023-02-15T14:00:04;101310.28;;;22.83;34.09
77153;BME280;66124;51.146;17.072;2023-02-15T14:02:59;101306.59;;;22.87;34.00
77153;BME280;66124;51.146;17.072;2023-02-15T14:05:45;101304.71;;;22.96;33.62
77153;BME280;66124;51.146;17.072;2023-02-15T14:08:17;101306.14;;;23.02;33.35
77153;BME280;66124;51.146;17.072;2023-02-15T14:17:03;101303.95;;;25.06;31.42